Overseas Milos — V7WR8 — position and weather

sailwx.info

Track history (hours):
 
Tides and Currents Weather Stations Pressure Air Temp Water Temp Dewpoint Dewpoint Depression Visibility Wind Speed Wind Dir Waves Ship Positions

Overseas Milos

Last reported at 2017-Feb-27 11:32 UTC. Time now 2017-Feb-27 11:36 UTC.
Position N 01°11' E 103°42'.

Length 183 m; draft 8.4 m.

Type: Tanker. MMSI: 538004376.

Date/timePositionNaut miles runAvg speedWind from/ knotsBaromVisibWave heightAir tempDewpointWater temp
2017-Feb-27 11:32N 01°11' E 103°42'0 0.0
2017-Feb-27 10:32N 01°11' E 103°42'0 0.0
2017-Feb-27 09:26N 01°11' E 103°42'0 0.0
2017-Feb-27 08:32N 01°11' E 103°42'0 0.0
2017-Feb-27 07:32N 01°11' E 103°42'0 0.1
2017-Feb-27 06:17N 01°11' E 103°42'0 0.0
2017-Feb-27 05:32N 01°11' E 103°42'0 0.1
2017-Feb-27 04:32N 01°11' E 103°42'0 0.0
2017-Feb-27 03:32N 01°11' E 103°42'0 0.0
2017-Feb-27 02:32N 01°11' E 103°42'0 0.1
2017-Feb-27 01:32N 01°11' E 103°42'0 0.1
2017-Feb-27 00:32N 01°11' E 103°42'0 0.0
2017-Feb-26 23:32N 01°11' E 103°42'0 0.0
2017-Feb-26 22:23N 01°11' E 103°42'0 0.1
2017-Feb-26 21:32N 01°11' E 103°42'0 0.0
2017-Feb-26 20:29N 01°11' E 103°42'0 0.0
2017-Feb-26 19:32N 01°11' E 103°42'0 0.1
2017-Feb-26 18:29N 01°11' E 103°42'0 0.2
2017-Feb-26 17:32N 01°11' E 103°42'0 0.1
2017-Feb-26 16:32N 01°11' E 103°42'0 0.0
2017-Feb-26 15:32N 01°11' E 103°42'0 0.0
2017-Feb-26 14:29N 01°11' E 103°42'0 0.0
2017-Feb-26 13:29N 01°11' E 103°42'0 0.0
2017-Feb-26 12:32N 01°11' E 103°42'0 0.1
2017-Feb-26 11:29N 01°11' E 103°42'0 0.1
2017-Feb-26 10:29N 01°11' E 103°42'0 0.0
2017-Feb-26 09:32N 01°11' E 103°42'0 0.0
2017-Feb-26 08:26N 01°11' E 103°42'0 0.1
2017-Feb-26 07:32N 01°11' E 103°42'0 0.1
2017-Feb-26 06:32N 01°11' E 103°42'0 0.1
2017-Feb-26 05:32N 01°11' E 103°42'0 0.1
2017-Feb-26 04:32N 01°11' E 103°42'0 0.1
2017-Feb-26 03:32N 01°11' E 103°42'0 0.1
2017-Feb-26 02:32N 01°11' E 103°42'1 1.3
2017-Feb-26 01:33N 01°11' E 103°41'7 6.5
2017-Feb-26 00:33N 01°12' E 103°34'6 6.3
2017-Feb-25 23:33N 01°10' E 103°28'10 9.3
2017-Feb-25 22:32N 01°15' E 103°20'5611.2
2017-Feb-25 17:33N 01°45' E 102°32'  
Track history (hours):
 
Tides and Currents Weather Stations Pressure Air Temp Water Temp Dewpoint Dewpoint Depression Visibility Wind Speed Wind Dir Waves Ship Positions

Overseas Milos

Last reported at 2017-Feb-27 11:32 UTC. Time now 2017-Feb-27 11:36 UTC.
Position N 01°11' E 103°42'.

Length 183 m; draft 8.4 m.

Type: Tanker. MMSI: 538004376.

Date/timePositionNaut miles runAvg speedWind from/ knotsBaromVisibWave heightAir tempDewpointWater temp
2017-Feb-27 11:32N 01°11' E 103°42'0 0.0
2017-Feb-27 10:32N 01°11' E 103°42'0 0.0
2017-Feb-27 09:26N 01°11' E 103°42'0 0.0
2017-Feb-27 08:32N 01°11' E 103°42'0 0.0
2017-Feb-27 07:32N 01°11' E 103°42'0 0.1
2017-Feb-27 06:17N 01°11' E 103°42'0 0.0
2017-Feb-27 05:32N 01°11' E 103°42'0 0.1
2017-Feb-27 04:32N 01°11' E 103°42'0 0.0
2017-Feb-27 03:32N 01°11' E 103°42'0 0.0
2017-Feb-27 02:32N 01°11' E 103°42'0 0.1
2017-Feb-27 01:32N 01°11' E 103°42'0 0.1
2017-Feb-27 00:32N 01°11' E 103°42'0 0.0
2017-Feb-26 23:32N 01°11' E 103°42'0 0.0
2017-Feb-26 22:23N 01°11' E 103°42'0 0.1
2017-Feb-26 21:32N 01°11' E 103°42'0 0.0
2017-Feb-26 20:29N 01°11' E 103°42'0 0.0
2017-Feb-26 19:32N 01°11' E 103°42'0 0.1
2017-Feb-26 18:29N 01°11' E 103°42'0 0.2
2017-Feb-26 17:32N 01°11' E 103°42'0 0.1
2017-Feb-26 16:32N 01°11' E 103°42'0 0.0
2017-Feb-26 15:32N 01°11' E 103°42'0 0.0
2017-Feb-26 14:29N 01°11' E 103°42'0 0.0
2017-Feb-26 13:29N 01°11' E 103°42'0 0.0
2017-Feb-26 12:32N 01°11' E 103°42'0 0.1
2017-Feb-26 11:29N 01°11' E 103°42'0 0.1
2017-Feb-26 10:29N 01°11' E 103°42'0 0.0
2017-Feb-26 09:32N 01°11' E 103°42'0 0.0
2017-Feb-26 08:26N 01°11' E 103°42'0 0.1
2017-Feb-26 07:32N 01°11' E 103°42'0 0.1
2017-Feb-26 06:32N 01°11' E 103°42'0 0.1
2017-Feb-26 05:32N 01°11' E 103°42'0 0.1
2017-Feb-26 04:32N 01°11' E 103°42'0 0.1
2017-Feb-26 03:32N 01°11' E 103°42'0 0.1
2017-Feb-26 02:32N 01°11' E 103°42'1 1.3
2017-Feb-26 01:33N 01°11' E 103°41'7 6.5
2017-Feb-26 00:33N 01°12' E 103°34'6 6.3
2017-Feb-25 23:33N 01°10' E 103°28'10 9.3
2017-Feb-25 22:32N 01°15' E 103°20'5611.2
2017-Feb-25 17:33N 01°45' E 102°32'  

Dump ship's entire track history